sensor_id;sensor_type;location;lat;lon;timestamp;P1;durP1;ratioP1;P2;durP2;ratioP2
6378;SDS011;3222;48.858;10.128;2023-03-01T00:01:08;17.10;;;12.17;;
6378;SDS011;3222;48.858;10.128;2023-03-01T00:03:35;16.03;;;11.93;;
6378;SDS011;3222;48.858;10.128;2023-03-01T00:06:01;18.47;;;12.60;;
6378;SDS011;3222;48.858;10.128;2023-03-01T00:08:28;18.50;;;12.73;;
6378;SDS011;3222;48.858;10.128;2023-03-01T00:13:27;19.60;;;12.77;;
6378;SDS011;3222;48.858;10.128;2023-03-01T00:15:52;18.40;;;12.57;;
6378;SDS011;3222;48.858;10.128;2023-03-01T00:18:18;20.90;;;13.90;;
6378;SDS011;3222;48.858;10.128;2023-03-01T00:20:49;18.43;;;12.87;;
6378;SDS011;3222;48.858;10.128;2023-03-01T00:23:18;17.40;;;12.30;;
6378;SDS011;3222;48.858;10.128;2023-03-01T00:25:44;17.37;;;12.20;;
6378;SDS011;3222;48.858;10.128;2023-03-01T00:28:10;19.33;;;13.57;;
6378;SDS011;3222;48.858;10.128;2023-03-01T00:30:35;17.80;;;13.07;;
6378;SDS011;3222;48.858;10.128;2023-03-01T00:33:01;18.97;;;13.17;;
6378;SDS011;3222;48.858;10.128;2023-03-01T00:35:27;17.30;;;12.53;;
6378;SDS011;3222;48.858;10.128;2023-03-01T00:37:52;25.03;;;14.00;;
6378;SDS011;3222;48.858;10.128;2023-03-01T00:40:26;21.33;;;14.17;;
6378;SDS011;3222;48.858;10.128;2023-03-01T00:42:52;19.23;;;14.33;;
6378;SDS011;3222;48.858;10.128;2023-03-01T00:45:18;19.23;;;13.77;;
6378;SDS011;3222;48.858;10.128;2023-03-01T00:47:44;19.93;;;14.03;;
6378;SDS011;3222;48.858;10.128;2023-03-01T00:50:10;18.83;;;13.70;;
6378;SDS011;3222;48.858;10.128;2023-03-01T00:52:36;20.00;;;13.30;;
6378;SDS011;3222;48.858;10.128;2023-03-01T00:55:03;18.00;;;13.50;;
6378;SDS011;3222;48.858;10.128;2023-03-01T00:57:29;19.07;;;13.43;;
6378;SDS011;3222;48.858;10.128;2023-03-01T00:59:55;20.30;;;13.77;;
6378;SDS011;3222;48.858;10.128;2023-03-01T01:02:21;16.83;;;12.93;;
6378;SDS011;3222;48.858;10.128;2023-03-01T01:04:46;20.00;;;14.47;;
6378;SDS011;3222;48.858;10.128;2023-03-01T01:07:12;18.57;;;13.57;;
6378;SDS011;3222;48.858;10.128;2023-03-01T01:09:39;17.70;;;12.57;;
6378;SDS011;3222;48.858;10.128;2023-03-01T01:12:06;19.03;;;13.10;;
6378;SDS011;3222;48.858;10.128;2023-03-01T01:14:33;16.63;;;12.63;;
6378;SDS011;3222;48.858;10.128;2023-03-01T01:16:59;17.93;;;12.93;;
6378;SDS011;3222;48.858;10.128;2023-03-01T01:19:25;20.03;;;13.30;;
6378;SDS011;3222;48.858;10.128;2023-03-01T01:21:50;17.83;;;13.20;;
6378;SDS011;3222;48.858;10.128;2023-03-01T01:24:17;18.93;;;13.77;;
6378;SDS011;3222;48.858;10.128;2023-03-01T01:26:44;19.07;;;13.43;;
6378;SDS011;3222;48.858;10.128;2023-03-01T01:29:11;21.17;;;14.03;;
6378;SDS011;3222;48.858;10.128;2023-03-01T01:31:38;18.50;;;13.27;;
6378;SDS011;3222;48.858;10.128;2023-03-01T01:34:05;16.73;;;12.20;;
6378;SDS011;3222;48.858;10.128;2023-03-01T01:36:33;19.20;;;13.33;;
6378;SDS011;3222;48.858;10.128;2023-03-01T01:38:59;21.00;;;13.50;;
6378;SDS011;3222;48.858;10.128;2023-03-01T01:41:26;18.47;;;12.70;;
6378;SDS011;3222;48.858;10.128;2023-03-01T01:46:47;17.30;;;13.33;;
6378;SDS011;3222;48.858;10.128;2023-03-01T01:51:55;20.70;;;13.90;;
6378;SDS011;3222;48.858;10.128;2023-03-01T01:57:39;17.53;;;13.77;;
6378;SDS011;3222;48.858;10.128;2023-03-01T02:00:14;22.37;;;13.43;;
6378;SDS011;3222;48.858;10.128;2023-03-01T02:02:42;22.27;;;13.40;;
6378;SDS011;3222;48.858;10.128;2023-03-01T02:05:15;23.53;;;14.97;;
6378;SDS011;3222;48.858;10.128;2023-03-01T02:07:49;18.93;;;13.67;;
6378;SDS011;3222;48.858;10.128;2023-03-01T02:10:18;18.30;;;12.77;;
6378;SDS011;3222;48.858;10.128;2023-03-01T02:12:45;23.13;;;14.23;;
6378;SDS011;3222;48.858;10.128;2023-03-01T02:15:11;21.87;;;13.47;;
6378;SDS011;3222;48.858;10.128;2023-03-01T02:17:37;20.23;;;13.60;;
6378;SDS011;3222;48.858;10.128;2023-03-01T02:20:13;21.67;;;13.37;;
6378;SDS011;3222;48.858;10.128;2023-03-01T02:22:41;20.90;;;13.27;;
6378;SDS011;3222;48.858;10.128;2023-03-01T02:30:10;19.67;;;13.30;;
6378;SDS011;3222;48.858;10.128;2023-03-01T02:32:39;19.67;;;13.80;;
6378;SDS011;3222;48.858;10.128;2023-03-01T02:35:08;17.17;;;13.20;;
6378;SDS011;3222;48.858;10.128;2023-03-01T02:37:37;18.40;;;14.57;;
6378;SDS011;3222;48.858;10.128;2023-03-01T02:40:06;20.03;;;13.10;;
6378;SDS011;3222;48.858;10.128;2023-03-01T02:42:43;20.93;;;14.17;;
6378;SDS011;3222;48.858;10.128;2023-03-01T02:45:16;17.50;;;12.93;;
6378;SDS011;3222;48.858;10.128;2023-03-01T02:47:42;21.30;;;13.60;;
6378;SDS011;3222;48.858;10.128;2023-03-01T02:50:12;18.67;;;13.30;;
6378;SDS011;3222;48.858;10.128;2023-03-01T02:53:12;21.33;;;14.37;;
6378;SDS011;3222;48.858;10.128;2023-03-01T02:55:57;20.73;;;13.47;;
6378;SDS011;3222;48.858;10.128;2023-03-01T02:58:24;19.80;;;13.60;;
6378;SDS011;3222;48.858;10.128;2023-03-01T03:00:50;18.17;;;13.13;;
6378;SDS011;3222;48.858;10.128;2023-03-01T03:03:17;19.27;;;13.83;;
6378;SDS011;3222;48.858;10.128;2023-03-01T03:05:46;20.00;;;14.33;;
6378;SDS011;3222;48.858;10.128;2023-03-01T03:08:13;20.07;;;14.07;;
6378;SDS011;3222;48.858;10.128;2023-03-01T03:10:48;19.63;;;13.07;;
6378;SDS011;3222;48.858;10.128;2023-03-01T03:13:14;21.17;;;14.23;;
6378;SDS011;3222;48.858;10.128;2023-03-01T03:15:42;18.40;;;13.03;;
6378;SDS011;3222;48.858;10.128;2023-03-01T03:18:09;22.33;;;14.27;;
6378;SDS011;3222;48.858;10.128;2023-03-01T03:20:38;21.03;;;13.87;;
6378;SDS011;3222;48.858;10.128;2023-03-01T03:23:05;20.53;;;14.60;;
6378;SDS011;3222;48.858;10.128;2023-03-01T03:25:31;18.13;;;13.67;;
6378;SDS011;3222;48.858;10.128;2023-03-01T03:27:57;23.83;;;14.77;;
6378;SDS011;3222;48.858;10.128;2023-03-01T03:30:24;20.13;;;14.37;;
6378;SDS011;3222;48.858;10.128;2023-03-01T03:32:52;19.00;;;13.43;;
6378;SDS011;3222;48.858;10.128;2023-03-01T03:35:18;20.30;;;14.27;;
6378;SDS011;3222;48.858;10.128;2023-03-01T03:37:59;18.57;;;13.60;;
6378;SDS011;3222;48.858;10.128;2023-03-01T03:40:38;24.60;;;15.03;;
6378;SDS011;3222;48.858;10.128;2023-03-01T03:43:06;19.90;;;13.83;;
6378;SDS011;3222;48.858;10.128;2023-03-01T03:45:34;18.53;;;14.23;;
6378;SDS011;3222;48.858;10.128;2023-03-01T03:48:01;20.40;;;14.80;;
6378;SDS011;3222;48.858;10.128;2023-03-01T03:50:28;21.43;;;14.47;;
6378;SDS011;3222;48.858;10.128;2023-03-01T03:52:54;19.03;;;14.00;;
6378;SDS011;3222;48.858;10.128;2023-03-01T03:55:19;19.87;;;14.30;;
6378;SDS011;3222;48.858;10.128;2023-03-01T03:57:46;19.83;;;13.70;;
6378;SDS011;3222;48.858;10.128;2023-03-01T04:00:18;18.50;;;13.70;;
6378;SDS011;3222;48.858;10.128;2023-03-01T04:02:46;18.60;;;13.30;;
6378;SDS011;3222;48.858;10.128;2023-03-01T04:05:15;21.03;;;14.87;;
6378;SDS011;3222;48.858;10.128;2023-03-01T04:07:42;20.03;;;13.83;;
6378;SDS011;3222;48.858;10.128;2023-03-01T04:10:10;19.13;;;13.43;;
6378;SDS011;3222;48.858;10.128;2023-03-01T04:12:38;19.20;;;13.83;;
6378;SDS011;3222;48.858;10.128;2023-03-01T04:15:04;18.63;;;13.50;;
6378;SDS011;3222;48.858;10.128;2023-03-01T04:17:41;19.63;;;14.03;;
6378;SDS011;3222;48.858;10.128;2023-03-01T04:20:09;25.20;;;14.37;;
6378;SDS011;3222;48.858;10.128;2023-03-01T04:22:39;22.17;;;14.37;;
6378;SDS011;3222;48.858;10.128;2023-03-01T04:25:06;22.47;;;14.40;;
6378;SDS011;3222;48.858;10.128;2023-03-01T04:27:35;19.30;;;14.53;;
6378;SDS011;3222;48.858;10.128;2023-03-01T04:30:02;18.93;;;13.90;;
6378;SDS011;3222;48.858;10.128;2023-03-01T04:32:28;20.63;;;13.93;;
6378;SDS011;3222;48.858;10.128;2023-03-01T04:34:54;17.93;;;13.60;;
6378;SDS011;3222;48.858;10.128;2023-03-01T04:37:20;21.27;;;14.90;;
6378;SDS011;3222;48.858;10.128;2023-03-01T04:39:45;20.10;;;14.57;;
6378;SDS011;3222;48.858;10.128;2023-03-01T04:42:13;19.37;;;14.27;;
6378;SDS011;3222;48.858;10.128;2023-03-01T04:44:39;20.13;;;15.00;;
6378;SDS011;3222;48.858;10.128;2023-03-01T04:47:05;20.30;;;14.10;;
6378;SDS011;3222;48.858;10.128;2023-03-01T04:49:31;20.37;;;14.67;;
6378;SDS011;3222;48.858;10.128;2023-03-01T04:51:57;22.33;;;14.33;;
6378;SDS011;3222;48.858;10.128;2023-03-01T04:54:27;19.57;;;14.60;;
6378;SDS011;3222;48.858;10.128;2023-03-01T04:56:53;20.43;;;14.90;;
6378;SDS011;3222;48.858;10.128;2023-03-01T04:59:20;17.77;;;13.27;;
6378;SDS011;3222;48.858;10.128;2023-03-01T05:01:49;18.67;;;13.97;;
6378;SDS011;3222;48.858;10.128;2023-03-01T05:04:15;20.00;;;13.57;;
6378;SDS011;3222;48.858;10.128;2023-03-01T05:06:41;20.47;;;14.27;;
6378;SDS011;3222;48.858;10.128;2023-03-01T05:09:07;22.13;;;14.80;;
6378;SDS011;3222;48.858;10.128;2023-03-01T05:11:33;19.77;;;14.77;;
6378;SDS011;3222;48.858;10.128;2023-03-01T05:14:04;19.83;;;13.17;;
6378;SDS011;3222;48.858;10.128;2023-03-01T05:16:32;19.70;;;13.83;;
6378;SDS011;3222;48.858;10.128;2023-03-01T05:18:58;19.07;;;14.60;;
6378;SDS011;3222;48.858;10.128;2023-03-01T05:21:24;21.53;;;14.63;;
6378;SDS011;3222;48.858;10.128;2023-03-01T05:23:50;24.53;;;14.17;;
6378;SDS011;3222;48.858;10.128;2023-03-01T05:26:17;19.53;;;13.97;;
6378;SDS011;3222;48.858;10.128;2023-03-01T05:28:44;22.37;;;14.30;;
6378;SDS011;3222;48.858;10.128;2023-03-01T05:31:10;19.60;;;14.17;;
6378;SDS011;3222;48.858;10.128;2023-03-01T05:33:39;20.23;;;14.40;;
6378;SDS011;3222;48.858;10.128;2023-03-01T05:36:06;21.97;;;15.27;;
6378;SDS011;3222;48.858;10.128;2023-03-01T05:38:33;20.13;;;14.23;;
6378;SDS011;3222;48.858;10.128;2023-03-01T05:40:59;20.83;;;14.63;;
6378;SDS011;3222;48.858;10.128;2023-03-01T05:43:25;23.03;;;14.93;;
6378;SDS011;3222;48.858;10.128;2023-03-01T05:45:50;19.40;;;14.47;;
6378;SDS011;3222;48.858;10.128;2023-03-01T05:48:16;21.73;;;15.20;;
6378;SDS011;3222;48.858;10.128;2023-03-01T05:50:44;20.07;;;14.50;;
6378;SDS011;3222;48.858;10.128;2023-03-01T05:53:16;21.03;;;14.77;;
6378;SDS011;3222;48.858;10.128;2023-03-01T05:55:44;20.10;;;14.57;;
6378;SDS011;3222;48.858;10.128;2023-03-01T05:58:21;20.20;;;14.87;;
6378;SDS011;3222;48.858;10.128;2023-03-01T06:00:47;21.27;;;14.60;;
6378;SDS011;3222;48.858;10.128;2023-03-01T06:03:14;19.07;;;13.83;;
6378;SDS011;3222;48.858;10.128;2023-03-01T06:05:41;20.80;;;14.80;;
6378;SDS011;3222;48.858;10.128;2023-03-01T06:08:08;21.37;;;14.93;;
6378;SDS011;3222;48.858;10.128;2023-03-01T06:10:35;19.90;;;13.93;;
6378;SDS011;3222;48.858;10.128;2023-03-01T06:13:01;20.93;;;14.60;;
6378;SDS011;3222;48.858;10.128;2023-03-01T06:15:26;22.33;;;15.07;;
6378;SDS011;3222;48.858;10.128;2023-03-01T06:17:53;23.63;;;15.23;;
6378;SDS011;3222;48.858;10.128;2023-03-01T06:20:22;20.60;;;14.67;;
6378;SDS011;3222;48.858;10.128;2023-03-01T06:22:49;21.47;;;14.30;;
6378;SDS011;3222;48.858;10.128;2023-03-01T06:25:16;22.50;;;15.13;;
6378;SDS011;3222;48.858;10.128;2023-03-01T06:27:45;22.70;;;14.73;;
6378;SDS011;3222;48.858;10.128;2023-03-01T06:30:11;22.17;;;14.97;;
6378;SDS011;3222;48.858;10.128;2023-03-01T06:32:39;21.43;;;13.73;;
6378;SDS011;3222;48.858;10.128;2023-03-01T06:35:12;22.40;;;14.53;;
6378;SDS011;3222;48.858;10.128;2023-03-01T06:37:40;21.77;;;14.50;;
6378;SDS011;3222;48.858;10.128;2023-03-01T06:40:06;21.67;;;14.50;;
6378;SDS011;3222;48.858;10.128;2023-03-01T06:42:37;24.33;;;15.27;;
6378;SDS011;3222;48.858;10.128;2023-03-01T06:45:04;19.97;;;13.80;;
6378;SDS011;3222;48.858;10.128;2023-03-01T06:47:32;22.23;;;14.97;;
6378;SDS011;3222;48.858;10.128;2023-03-01T06:49:59;21.67;;;14.83;;
6378;SDS011;3222;48.858;10.128;2023-03-01T06:52:25;23.47;;;14.37;;
6378;SDS011;3222;48.858;10.128;2023-03-01T06:54:51;22.10;;;15.13;;
6378;SDS011;3222;48.858;10.128;2023-03-01T06:57:17;20.83;;;14.30;;
6378;SDS011;3222;48.858;10.128;2023-03-01T06:59:43;22.17;;;14.60;;
6378;SDS011;3222;48.858;10.128;2023-03-01T07:02:10;24.97;;;15.07;;
6378;SDS011;3222;48.858;10.128;2023-03-01T07:04:36;22.77;;;14.60;;
6378;SDS011;3222;48.858;10.128;2023-03-01T07:07:02;23.03;;;14.20;;
6378;SDS011;3222;48.858;10.128;2023-03-01T07:09:28;22.47;;;15.27;;
6378;SDS011;3222;48.858;10.128;2023-03-01T07:11:54;21.93;;;15.30;;
6378;SDS011;3222;48.858;10.128;2023-03-01T07:14:20;19.30;;;14.63;;
6378;SDS011;3222;48.858;10.128;2023-03-01T07:16:46;23.63;;;15.30;;
6378;SDS011;3222;48.858;10.128;2023-03-01T07:19:12;22.30;;;14.63;;
6378;SDS011;3222;48.858;10.128;2023-03-01T07:21:38;20.77;;;14.40;;
6378;SDS011;3222;48.858;10.128;2023-03-01T07:24:05;22.13;;;14.67;;
6378;SDS011;3222;48.858;10.128;2023-03-01T07:26:32;23.73;;;15.27;;
6378;SDS011;3222;48.858;10.128;2023-03-01T07:29:01;21.30;;;14.00;;
6378;SDS011;3222;48.858;10.128;2023-03-01T07:31:29;20.50;;;14.30;;
6378;SDS011;3222;48.858;10.128;2023-03-01T07:33:55;21.43;;;14.03;;
6378;SDS011;3222;48.858;10.128;2023-03-01T07:36:21;19.73;;;13.83;;
6378;SDS011;3222;48.858;10.128;2023-03-01T07:38:47;19.37;;;13.60;;
6378;SDS011;3222;48.858;10.128;2023-03-01T07:41:13;21.13;;;13.73;;
6378;SDS011;3222;48.858;10.128;2023-03-01T07:43:39;18.30;;;13.53;;
6378;SDS011;3222;48.858;10.128;2023-03-01T07:46:04;20.83;;;15.00;;
6378;SDS011;3222;48.858;10.128;2023-03-01T07:48:32;20.23;;;13.97;;
6378;SDS011;3222;48.858;10.128;2023-03-01T07:51:00;21.87;;;14.30;;
6378;SDS011;3222;48.858;10.128;2023-03-01T07:53:26;21.00;;;14.73;;
6378;SDS011;3222;48.858;10.128;2023-03-01T07:56:06;20.80;;;14.10;;
6378;SDS011;3222;48.858;10.128;2023-03-01T07:58:34;21.03;;;13.33;;
6378;SDS011;3222;48.858;10.128;2023-03-01T08:01:01;20.10;;;15.00;;
6378;SDS011;3222;48.858;10.128;2023-03-01T08:03:30;20.67;;;13.97;;
6378;SDS011;3222;48.858;10.128;2023-03-01T08:05:58;20.43;;;14.37;;
6378;SDS011;3222;48.858;10.128;2023-03-01T08:08:24;22.77;;;14.43;;
6378;SDS011;3222;48.858;10.128;2023-03-01T08:10:50;23.43;;;14.70;;
6378;SDS011;3222;48.858;10.128;2023-03-01T08:13:16;27.57;;;15.50;;
6378;SDS011;3222;48.858;10.128;2023-03-01T08:15:47;20.07;;;14.40;;
6378;SDS011;3222;48.858;10.128;2023-03-01T08:18:14;21.27;;;14.77;;
6378;SDS011;3222;48.858;10.128;2023-03-01T08:20:40;22.07;;;14.53;;
6378;SDS011;3222;48.858;10.128;2023-03-01T08:23:05;19.17;;;13.97;;
6378;SDS011;3222;48.858;10.128;2023-03-01T08:25:31;26.40;;;15.03;;
6378;SDS011;3222;48.858;10.128;2023-03-01T08:27:57;19.20;;;14.20;;
6378;SDS011;3222;48.858;10.128;2023-03-01T08:30:22;20.40;;;14.17;;
6378;SDS011;3222;48.858;10.128;2023-03-01T08:32:49;21.60;;;14.23;;
6378;SDS011;3222;48.858;10.128;2023-03-01T08:35:15;23.33;;;15.17;;
6378;SDS011;3222;48.858;10.128;2023-03-01T08:37:41;20.70;;;14.23;;
6378;SDS011;3222;48.858;10.128;2023-03-01T08:40:07;21.77;;;15.33;;
6378;SDS011;3222;48.858;10.128;2023-03-01T08:42:35;19.67;;;13.60;;
6378;SDS011;3222;48.858;10.128;2023-03-01T08:45:01;21.30;;;14.57;;
6378;SDS011;3222;48.858;10.128;2023-03-01T08:47:28;21.50;;;14.30;;
6378;SDS011;3222;48.858;10.128;2023-03-01T08:49:53;23.83;;;14.53;;
6378;SDS011;3222;48.858;10.128;2023-03-01T08:52:19;22.70;;;14.63;;
6378;SDS011;3222;48.858;10.128;2023-03-01T08:54:49;22.77;;;14.70;;
6378;SDS011;3222;48.858;10.128;2023-03-01T08:57:14;21.57;;;14.67;;
6378;SDS011;3222;48.858;10.128;2023-03-01T08:59:40;21.33;;;14.00;;
6378;SDS011;3222;48.858;10.128;2023-03-01T09:02:10;21.57;;;14.40;;
6378;SDS011;3222;48.858;10.128;2023-03-01T09:04:38;21.13;;;14.40;;
6378;SDS011;3222;48.858;10.128;2023-03-01T09:07:04;28.27;;;15.07;;
6378;SDS011;3222;48.858;10.128;2023-03-01T09:09:30;20.57;;;13.80;;
6378;SDS011;3222;48.858;10.128;2023-03-01T09:11:55;23.33;;;14.60;;
6378;SDS011;3222;48.858;10.128;2023-03-01T09:14:21;19.43;;;13.37;;
6378;SDS011;3222;48.858;10.128;2023-03-01T09:16:47;19.17;;;13.37;;
6378;SDS011;3222;48.858;10.128;2023-03-01T09:19:12;21.27;;;15.13;;
6378;SDS011;3222;48.858;10.128;2023-03-01T09:21:39;20.77;;;14.03;;
6378;SDS011;3222;48.858;10.128;2023-03-01T09:24:05;21.97;;;14.93;;
6378;SDS011;3222;48.858;10.128;2023-03-01T09:26:49;20.90;;;14.80;;
6378;SDS011;3222;48.858;10.128;2023-03-01T09:29:18;22.90;;;14.47;;
6378;SDS011;3222;48.858;10.128;2023-03-01T09:31:43;22.23;;;14.53;;
6378;SDS011;3222;48.858;10.128;2023-03-01T09:34:09;19.07;;;14.40;;
6378;SDS011;3222;48.858;10.128;2023-03-01T09:36:35;22.33;;;14.27;;
6378;SDS011;3222;48.858;10.128;2023-03-01T09:39:02;24.93;;;14.53;;
6378;SDS011;3222;48.858;10.128;2023-03-01T09:41:36;21.73;;;14.13;;
6378;SDS011;3222;48.858;10.128;2023-03-01T09:46:51;23.57;;;14.73;;
6378;SDS011;3222;48.858;10.128;2023-03-01T09:49:27;19.93;;;14.07;;
6378;SDS011;3222;48.858;10.128;2023-03-01T09:52:03;21.53;;;14.13;;
6378;SDS011;3222;48.858;10.128;2023-03-01T09:54:38;21.93;;;14.23;;
6378;SDS011;3222;48.858;10.128;2023-03-01T09:57:05;19.50;;;14.00;;
6378;SDS011;3222;48.858;10.128;2023-03-01T10:08:10;17.83;;;13.80;;
6378;SDS011;3222;48.858;10.128;2023-03-01T10:10:52;20.93;;;13.70;;
6378;SDS011;3222;48.858;10.128;2023-03-01T10:15:47;20.47;;;14.43;;
6378;SDS011;3222;48.858;10.128;2023-03-01T10:18:21;24.40;;;14.17;;
6378;SDS011;3222;48.858;10.128;2023-03-01T10:20:52;20.60;;;13.50;;
6378;SDS011;3222;48.858;10.128;2023-03-01T10:23:22;21.40;;;13.83;;
6378;SDS011;3222;48.858;10.128;2023-03-01T10:25:59;22.63;;;14.23;;
6378;SDS011;3222;48.858;10.128;2023-03-01T10:31:13;18.97;;;13.40;;
6378;SDS011;3222;48.858;10.128;2023-03-01T10:33:43;22.37;;;13.93;;
6378;SDS011;3222;48.858;10.128;2023-03-01T10:36:09;20.80;;;14.53;;
6378;SDS011;3222;48.858;10.128;2023-03-01T10:38:48;20.17;;;14.07;;
6378;SDS011;3222;48.858;10.128;2023-03-01T10:41:19;19.77;;;14.00;;
6378;SDS011;3222;48.858;10.128;2023-03-01T10:43:46;18.50;;;13.53;;
6378;SDS011;3222;48.858;10.128;2023-03-01T10:46:30;21.60;;;15.20;;
6378;SDS011;3222;48.858;10.128;2023-03-01T10:51:48;17.60;;;13.23;;
6378;SDS011;3222;48.858;10.128;2023-03-01T10:54:32;17.23;;;13.73;;
6378;SDS011;3222;48.858;10.128;2023-03-01T10:57:02;19.47;;;13.30;;
6378;SDS011;3222;48.858;10.128;2023-03-01T10:59:30;18.83;;;13.23;;
6378;SDS011;3222;48.858;10.128;2023-03-01T11:02:17;17.70;;;13.50;;
6378;SDS011;3222;48.858;10.128;2023-03-01T11:07:46;18.97;;;12.83;;
6378;SDS011;3222;48.858;10.128;2023-03-01T11:10:25;18.40;;;12.33;;
6378;SDS011;3222;48.858;10.128;2023-03-01T11:12:53;18.07;;;12.63;;
6378;SDS011;3222;48.858;10.128;2023-03-01T11:15:30;17.03;;;12.80;;
6378;SDS011;3222;48.858;10.128;2023-03-01T11:17:56;15.70;;;11.97;;
6378;SDS011;3222;48.858;10.128;2023-03-01T11:20:27;16.17;;;12.00;;
6378;SDS011;3222;48.858;10.128;2023-03-01T11:23:01;17.03;;;11.90;;
6378;SDS011;3222;48.858;10.128;2023-03-01T11:25:39;16.47;;;12.23;;
6378;SDS011;3222;48.858;10.128;2023-03-01T11:28:07;17.20;;;12.43;;
6378;SDS011;3222;48.858;10.128;2023-03-01T11:30:49;18.33;;;11.90;;
6378;SDS011;3222;48.858;10.128;2023-03-01T11:36:27;20.23;;;12.53;;
6378;SDS011;3222;48.858;10.128;2023-03-01T11:39:17;18.27;;;12.07;;
6378;SDS011;3222;48.858;10.128;2023-03-01T11:41:49;16.10;;;11.07;;
6378;SDS011;3222;48.858;10.128;2023-03-01T11:44:24;14.30;;;10.93;;
6378;SDS011;3222;48.858;10.128;2023-03-01T11:49:44;15.13;;;11.33;;
6378;SDS011;3222;48.858;10.128;2023-03-01T12:00:52;18.60;;;13.20;;
6378;SDS011;3222;48.858;10.128;2023-03-01T12:09:36;17.73;;;13.37;;
6378;SDS011;3222;48.858;10.128;2023-03-01T12:12:23;19.13;;;13.40;;
6378;SDS011;3222;48.858;10.128;2023-03-01T12:18:04;21.17;;;13.47;;
6378;SDS011;3222;48.858;10.128;2023-03-01T12:20:58;20.13;;;13.70;;
6378;SDS011;3222;48.858;10.128;2023-03-01T12:24:04;20.07;;;13.20;;
6378;SDS011;3222;48.858;10.128;2023-03-01T12:26:33;19.33;;;13.70;;
6378;SDS011;3222;48.858;10.128;2023-03-01T12:39:39;19.17;;;14.77;;
6378;SDS011;3222;48.858;10.128;2023-03-01T12:50:47;25.20;;;14.60;;
6378;SDS011;3222;48.858;10.128;2023-03-01T12:53:21;19.33;;;14.10;;
6378;SDS011;3222;48.858;10.128;2023-03-01T12:55:53;19.37;;;14.50;;
6378;SDS011;3222;48.858;10.128;2023-03-01T13:06:50;18.47;;;13.77;;
6378;SDS011;3222;48.858;10.128;2023-03-01T13:11:55;18.50;;;13.40;;
6378;SDS011;3222;48.858;10.128;2023-03-01T13:16:53;16.77;;;13.17;;
6378;SDS011;3222;48.858;10.128;2023-03-01T13:21:46;16.83;;;13.10;;
6378;SDS011;3222;48.858;10.128;2023-03-01T13:24:26;16.77;;;12.73;;
6378;SDS011;3222;48.858;10.128;2023-03-01T13:29:46;17.80;;;13.37;;
6378;SDS011;3222;48.858;10.128;2023-03-01T13:32:31;15.77;;;12.40;;
6378;SDS011;3222;48.858;10.128;2023-03-01T13:34:59;16.87;;;12.63;;
6378;SDS011;3222;48.858;10.128;2023-03-01T13:37:26;15.73;;;11.97;;
6378;SDS011;3222;48.858;10.128;2023-03-01T13:39:55;17.33;;;12.73;;
6378;SDS011;3222;48.858;10.128;2023-03-01T13:42:40;18.03;;;12.83;;
6378;SDS011;3222;48.858;10.128;2023-03-01T13:45:16;18.07;;;11.90;;
6378;SDS011;3222;48.858;10.128;2023-03-01T13:47:49;16.37;;;12.83;;
6378;SDS011;3222;48.858;10.128;2023-03-01T13:50:21;17.37;;;12.50;;
6378;SDS011;3222;48.858;10.128;2023-03-01T13:52:52;15.77;;;12.33;;
6378;SDS011;3222;48.858;10.128;2023-03-01T13:55:23;18.10;;;13.17;;
6378;SDS011;3222;48.858;10.128;2023-03-01T13:58:03;19.50;;;12.73;;
6378;SDS011;3222;48.858;10.128;2023-03-01T14:00:54;16.33;;;12.53;;
6378;SDS011;3222;48.858;10.128;2023-03-01T14:03:24;14.90;;;12.63;;
6378;SDS011;3222;48.858;10.128;2023-03-01T14:05:58;17.60;;;13.23;;
6378;SDS011;3222;48.858;10.128;2023-03-01T14:08:44;19.50;;;14.13;;
6378;SDS011;3222;48.858;10.128;2023-03-01T14:11:20;16.70;;;12.77;;
6378;SDS011;3222;48.858;10.128;2023-03-01T14:19:27;15.90;;;12.47;;
6378;SDS011;3222;48.858;10.128;2023-03-01T14:24:44;16.83;;;12.37;;
6378;SDS011;3222;48.858;10.128;2023-03-01T14:27:21;16.07;;;12.63;;
6378;SDS011;3222;48.858;10.128;2023-03-01T14:29:59;16.57;;;13.07;;
6378;SDS011;3222;48.858;10.128;2023-03-01T14:32:30;17.20;;;12.40;;
6378;SDS011;3222;48.858;10.128;2023-03-01T14:34:58;16.57;;;13.00;;
6378;SDS011;3222;48.858;10.128;2023-03-01T14:37:34;15.20;;;12.10;;
6378;SDS011;3222;48.858;10.128;2023-03-01T14:40:01;17.63;;;13.17;;
6378;SDS011;3222;48.858;10.128;2023-03-01T14:42:29;16.93;;;12.23;;
6378;SDS011;3222;48.858;10.128;2023-03-01T14:44:59;17.20;;;12.87;;
6378;SDS011;3222;48.858;10.128;2023-03-01T14:47:33;19.27;;;12.47;;
6378;SDS011;3222;48.858;10.128;2023-03-01T14:50:08;19.33;;;12.93;;
6378;SDS011;3222;48.858;10.128;2023-03-01T14:52:47;17.77;;;12.87;;
6378;SDS011;3222;48.858;10.128;2023-03-01T14:55:16;26.67;;;13.47;;
6378;SDS011;3222;48.858;10.128;2023-03-01T14:57:45;29.10;;;12.17;;
6378;SDS011;3222;48.858;10.128;2023-03-01T15:00:26;40.40;;;14.40;;
6378;SDS011;3222;48.858;10.128;2023-03-01T15:02:55;413.50;;;40.07;;
6378;SDS011;3222;48.858;10.128;2023-03-01T15:05:30;321.90;;;32.10;;
6378;SDS011;3222;48.858;10.128;2023-03-01T15:07:58;466.83;;;39.03;;
6378;SDS011;3222;48.858;10.128;2023-03-01T15:10:27;656.33;;;59.67;;
6378;SDS011;3222;48.858;10.128;2023-03-01T15:12:55;49.60;;;14.63;;
6378;SDS011;3222;48.858;10.128;2023-03-01T15:15:35;232.70;;;26.33;;
6378;SDS011;3222;48.858;10.128;2023-03-01T15:18:18;49.20;;;14.37;;
6378;SDS011;3222;48.858;10.128;2023-03-01T15:20:46;28.00;;;12.83;;
6378;SDS011;3222;48.858;10.128;2023-03-01T15:23:32;19.13;;;12.53;;
6378;SDS011;3222;48.858;10.128;2023-03-01T15:25:57;16.13;;;12.30;;
6378;SDS011;3222;48.858;10.128;2023-03-01T15:28:30;15.17;;;11.90;;
6378;SDS011;3222;48.858;10.128;2023-03-01T15:31:03;14.97;;;12.10;;
6378;SDS011;3222;48.858;10.128;2023-03-01T15:33:37;16.00;;;12.10;;
6378;SDS011;3222;48.858;10.128;2023-03-01T15:36:29;18.93;;;12.67;;
6378;SDS011;3222;48.858;10.128;2023-03-01T15:38:58;17.43;;;12.23;;
6378;SDS011;3222;48.858;10.128;2023-03-01T15:41:38;16.03;;;12.73;;
6378;SDS011;3222;48.858;10.128;2023-03-01T15:44:26;15.03;;;11.97;;
6378;SDS011;3222;48.858;10.128;2023-03-01T15:46:54;17.23;;;12.37;;
6378;SDS011;3222;48.858;10.128;2023-03-01T15:49:39;25.07;;;12.13;;
6378;SDS011;3222;48.858;10.128;2023-03-01T15:52:14;39.80;;;14.57;;
6378;SDS011;3222;48.858;10.128;2023-03-01T15:54:54;23.17;;;11.67;;
6378;SDS011;3222;48.858;10.128;2023-03-01T15:57:24;18.43;;;11.80;;
6378;SDS011;3222;48.858;10.128;2023-03-01T15:59:50;31.60;;;12.23;;
6378;SDS011;3222;48.858;10.128;2023-03-01T16:02:15;14.90;;;11.60;;
6378;SDS011;3222;48.858;10.128;2023-03-01T16:04:41;16.83;;;12.07;;
6378;SDS011;3222;48.858;10.128;2023-03-01T16:07:08;17.63;;;12.10;;
6378;SDS011;3222;48.858;10.128;2023-03-01T16:09:34;15.33;;;11.47;;
6378;SDS011;3222;48.858;10.128;2023-03-01T16:12:01;15.97;;;11.33;;
6378;SDS011;3222;48.858;10.128;2023-03-01T16:14:27;15.17;;;10.97;;
6378;SDS011;3222;48.858;10.128;2023-03-01T16:16:53;13.73;;;11.07;;
6378;SDS011;3222;48.858;10.128;2023-03-01T16:19:18;15.40;;;11.20;;
6378;SDS011;3222;48.858;10.128;2023-03-01T16:21:44;14.27;;;11.20;;
6378;SDS011;3222;48.858;10.128;2023-03-01T16:24:12;16.20;;;11.47;;
6378;SDS011;3222;48.858;10.128;2023-03-01T16:26:38;16.13;;;11.77;;
6378;SDS011;3222;48.858;10.128;2023-03-01T16:29:04;15.70;;;11.77;;
6378;SDS011;3222;48.858;10.128;2023-03-01T16:31:30;19.23;;;12.10;;
6378;SDS011;3222;48.858;10.128;2023-03-01T16:33:56;16.97;;;12.93;;
6378;SDS011;3222;48.858;10.128;2023-03-01T16:36:23;18.30;;;12.10;;